sensor_id;sensor_type;location;lat;lon;timestamp;pressure;altitude;pressure_sealevel;temperature;humidity
70072;BME280;57434;42.794;23.302;2023-04-29T00:00:55;95635.72;;;3.75;nan
70072;BME280;57434;42.794;23.302;2023-04-29T00:01:56;95611.81;;;3.56;nan
70072;BME280;57434;42.794;23.302;2023-04-29T00:02:58;95673.81;;;4.09;nan
70072;BME280;57434;42.794;23.302;2023-04-29T00:04:00;95583.50;;;3.61;nan
70072;BME280;57434;42.794;23.302;2023-04-29T00:05:03;95577.84;;;3.52;nan
70072;BME280;57434;42.794;23.302;2023-04-29T00:06:05;95594.50;;;3.52;nan
70072;BME280;57434;42.794;23.302;2023-04-29T00:07:07;95621.28;;;3.80;nan
70072;BME280;57434;42.794;23.302;2023-04-29T00:08:09;95591.56;;;3.68;nan
70072;BME280;57434;42.794;23.302;2023-04-29T00:09:11;95726.56;;;4.43;nan
70072;BME280;57434;42.794;23.302;2023-04-29T00:10:13;95649.31;;;3.95;nan
70072;BME280;57434;42.794;23.302;2023-04-29T00:11:14;95720.72;;;4.29;nan
70072;BME280;57434;42.794;23.302;2023-04-29T00:12:16;95674.38;;;4.04;nan
70072;BME280;57434;42.794;23.302;2023-04-29T00:13:18;95714.19;;;4.23;nan
70072;BME280;57434;42.794;23.302;2023-04-29T00:14:20;95594.97;;;3.37;nan
70072;BME280;57434;42.794;23.302;2023-04-29T00:15:22;95697.34;;;4.04;nan
70072;BME280;57434;42.794;23.302;2023-04-29T00:16:24;95606.63;;;3.32;nan
70072;BME280;57434;42.794;23.302;2023-04-29T00:17:26;95725.56;;;4.16;nan
70072;BME280;57434;42.794;23.302;2023-04-29T00:18:28;95696.16;;;3.93;nan
70072;BME280;57434;42.794;23.302;2023-04-29T00:19:29;95647.81;;;3.68;nan
70072;BME280;57434;42.794;23.302;2023-04-29T00:20:31;95742.78;;;4.45;nan
70072;BME280;57434;42.794;23.302;2023-04-29T00:21:33;95678.94;;;3.98;nan
70072;BME280;57434;42.794;23.302;2023-04-29T00:22:35;95591.28;;;3.53;nan
70072;BME280;57434;42.794;23.302;2023-04-29T00:23:37;95735.50;;;4.26;nan
70072;BME280;57434;42.794;23.302;2023-04-29T00:24:38;95700.63;;;4.25;nan
70072;BME280;57434;42.794;23.302;2023-04-29T00:25:40;95708.47;;;4.39;nan
70072;BME280;57434;42.794;23.302;2023-04-29T00:26:42;95725.53;;;4.50;nan
70072;BME280;57434;42.794;23.302;2023-04-29T00:27:44;95693.03;;;4.38;nan
70072;BME280;57434;42.794;23.302;2023-04-29T00:28:46;95739.91;;;4.70;nan
70072;BME280;57434;42.794;23.302;2023-04-29T00:29:47;95737.94;;;4.58;nan
70072;BME280;57434;42.794;23.302;2023-04-29T00:30:49;95684.03;;;4.34;nan
70072;BME280;57434;42.794;23.302;2023-04-29T00:31:51;95619.03;;;3.88;nan
70072;BME280;57434;42.794;23.302;2023-04-29T00:32:54;95755.97;;;4.54;nan
70072;BME280;57434;42.794;23.302;2023-04-29T00:33:55;95720.28;;;4.52;nan
70072;BME280;57434;42.794;23.302;2023-04-29T00:34:57;95651.16;;;4.10;nan
70072;BME280;57434;42.794;23.302;2023-04-29T00:35:59;95716.22;;;4.44;nan
70072;BME280;57434;42.794;23.302;2023-04-29T00:37:01;95752.53;;;4.50;nan
70072;BME280;57434;42.794;23.302;2023-04-29T00:38:02;95614.41;;;3.72;nan
70072;BME280;57434;42.794;23.302;2023-04-29T00:39:04;95578.09;;;3.45;nan
70072;BME280;57434;42.794;23.302;2023-04-29T00:40:07;95581.94;;;3.60;nan
70072;BME280;57434;42.794;23.302;2023-04-29T00:41:09;95624.97;;;3.99;nan
70072;BME280;57434;42.794;23.302;2023-04-29T00:42:11;95728.78;;;4.70;nan
70072;BME280;57434;42.794;23.302;2023-04-29T00:43:13;95751.34;;;4.72;nan
70072;BME280;57434;42.794;23.302;2023-04-29T00:44:14;95576.13;;;3.67;nan
70072;BME280;57434;42.794;23.302;2023-04-29T00:45:16;95685.69;;;4.44;nan
70072;BME280;57434;42.794;23.302;2023-04-29T00:46:18;95567.13;;;3.75;nan
70072;BME280;57434;42.794;23.302;2023-04-29T00:47:20;95569.13;;;3.75;nan
70072;BME280;57434;42.794;23.302;2023-04-29T00:48:22;95587.75;;;3.74;nan
70072;BME280;57434;42.794;23.302;2023-04-29T00:49:24;95686.81;;;4.34;nan
70072;BME280;57434;42.794;23.302;2023-04-29T00:50:26;95716.22;;;4.44;nan
70072;BME280;57434;42.794;23.302;2023-04-29T00:51:27;95565.22;;;3.51;nan
70072;BME280;57434;42.794;23.302;2023-04-29T00:52:30;95732.97;;;4.53;nan
70072;BME280;57434;42.794;23.302;2023-04-29T00:53:32;95588.06;;;3.55;nan
70072;BME280;57434;42.794;23.302;2023-04-29T00:54:34;95730.03;;;4.35;nan
70072;BME280;57434;42.794;23.302;2023-04-29T00:55:38;95704.00;;;4.20;nan
70072;BME280;57434;42.794;23.302;2023-04-29T00:56:44;95714.91;;;4.01;nan
70072;BME280;57434;42.794;23.302;2023-04-29T00:57:47;95733.44;;;4.17;nan
70072;BME280;57434;42.794;23.302;2023-04-29T00:58:49;95585.25;;;3.20;nan
70072;BME280;57434;42.794;23.302;2023-04-29T00:59:52;95588.34;;;3.22;nan
70072;BME280;57434;42.794;23.302;2023-04-29T01:00:54;95660.19;;;3.55;nan
70072;BME280;57434;42.794;23.302;2023-04-29T01:02:01;95612.63;;;3.18;nan
70072;BME280;57434;42.794;23.302;2023-04-29T01:03:04;95668.50;;;3.55;nan
70072;BME280;57434;42.794;23.302;2023-04-29T01:04:06;95709.75;;;3.78;nan
70072;BME280;57434;42.794;23.302;2023-04-29T01:05:08;95615.75;;;3.07;nan
70072;BME280;57434;42.794;23.302;2023-04-29T01:10:21;95564.09;;;2.88;nan
70072;BME280;57434;42.794;23.302;2023-04-29T01:11:31;95608.53;;;3.23;nan
70072;BME280;57434;42.794;23.302;2023-04-29T01:13:49;95584.50;;;2.82;nan
70072;BME280;57434;42.794;23.302;2023-04-29T01:15:03;95689.69;;;3.49;nan
70072;BME280;57434;42.794;23.302;2023-04-29T01:16:22;95561.88;;;2.58;nan
70072;BME280;57434;42.794;23.302;2023-04-29T01:17:30;95675.94;;;3.20;nan
70072;BME280;57434;42.794;23.302;2023-04-29T01:18:41;95579.16;;;2.49;nan
70072;BME280;57434;42.794;23.302;2023-04-29T01:19:49;95741.72;;;3.45;nan
70072;BME280;57434;42.794;23.302;2023-04-29T01:20:51;95706.13;;;3.30;nan
70072;BME280;57434;42.794;23.302;2023-04-29T01:21:53;95556.44;;;2.42;nan
70072;BME280;57434;42.794;23.302;2023-04-29T01:22:55;95569.59;;;2.37;nan
70072;BME280;57434;42.794;23.302;2023-04-29T01:24:18;95707.09;;;2.98;nan
70072;BME280;57434;42.794;23.302;2023-04-29T01:25:20;95705.34;;;3.04;nan
70072;BME280;57434;42.794;23.302;2023-04-29T01:26:22;95716.28;;;2.83;nan
70072;BME280;57434;42.794;23.302;2023-04-29T01:27:28;95704.66;;;3.00;nan
70072;BME280;57434;42.794;23.302;2023-04-29T01:29:10;95715.09;;;3.22;nan
70072;BME280;57434;42.794;23.302;2023-04-29T01:31:40;95581.81;;;2.53;nan
70072;BME280;57434;42.794;23.302;2023-04-29T01:32:52;95728.50;;;3.23;nan
70072;BME280;57434;42.794;23.302;2023-04-29T01:34:13;95711.00;;;3.26;nan
70072;BME280;57434;42.794;23.302;2023-04-29T01:35:49;95726.06;;;3.25;nan
70072;BME280;57434;42.794;23.302;2023-04-29T01:37:23;95700.66;;;3.01;nan
70072;BME280;57434;42.794;23.302;2023-04-29T01:38:36;95632.34;;;2.69;nan
70072;BME280;57434;42.794;23.302;2023-04-29T01:40:04;95712.97;;;3.00;nan
70072;BME280;57434;42.794;23.302;2023-04-29T01:41:23;95716.72;;;2.94;nan
70072;BME280;57434;42.794;23.302;2023-04-29T01:43:01;95702.13;;;3.06;nan
70072;BME280;57434;42.794;23.302;2023-04-29T01:44:07;95584.41;;;2.18;nan
70072;BME280;57434;42.794;23.302;2023-04-29T01:45:10;95690.19;;;2.67;nan
70072;BME280;57434;42.794;23.302;2023-04-29T01:46:15;95555.59;;;2.03;nan
70072;BME280;57434;42.794;23.302;2023-04-29T01:47:17;95567.22;;;1.98;nan
70072;BME280;57434;42.794;23.302;2023-04-29T01:48:19;95682.06;;;2.60;nan
70072;BME280;57434;42.794;23.302;2023-04-29T01:49:25;95544.00;;;1.79;nan
70072;BME280;57434;42.794;23.302;2023-04-29T01:50:27;95546.22;;;1.71;nan
70072;BME280;57434;42.794;23.302;2023-04-29T01:51:28;95692.50;;;2.69;nan
70072;BME280;57434;42.794;23.302;2023-04-29T01:52:30;95711.38;;;2.74;nan
70072;BME280;57434;42.794;23.302;2023-04-29T01:53:32;95712.50;;;2.77;nan
70072;BME280;57434;42.794;23.302;2023-04-29T01:54:34;95640.88;;;2.62;nan
70072;BME280;57434;42.794;23.302;2023-04-29T01:55:36;95545.47;;;1.84;nan
70072;BME280;57434;42.794;23.302;2023-04-29T01:56:38;95683.63;;;2.61;nan
70072;BME280;57434;42.794;23.302;2023-04-29T01:57:40;95690.25;;;2.51;nan
70072;BME280;57434;42.794;23.302;2023-04-29T01:58:41;95688.88;;;2.72;nan
70072;BME280;57434;42.794;23.302;2023-04-29T01:59:43;95609.00;;;2.29;nan
70072;BME280;57434;42.794;23.302;2023-04-29T02:00:45;95697.09;;;2.76;nan
70072;BME280;57434;42.794;23.302;2023-04-29T02:01:47;95633.88;;;2.45;nan
70072;BME280;57434;42.794;23.302;2023-04-29T02:02:49;95588.84;;;2.16;nan
70072;BME280;57434;42.794;23.302;2023-04-29T02:03:50;95671.47;;;2.71;nan
70072;BME280;57434;42.794;23.302;2023-04-29T02:04:53;95583.28;;;2.16;nan
70072;BME280;57434;42.794;23.302;2023-04-29T02:05:55;95658.06;;;2.70;nan
70072;BME280;57434;42.794;23.302;2023-04-29T02:06:56;95586.84;;;2.29;nan
70072;BME280;57434;42.794;23.302;2023-04-29T02:07:59;95644.44;;;2.76;nan
70072;BME280;57434;42.794;23.302;2023-04-29T02:09:00;95707.66;;;3.19;nan
70072;BME280;57434;42.794;23.302;2023-04-29T02:10:02;95705.44;;;3.26;nan
70072;BME280;57434;42.794;23.302;2023-04-29T02:11:04;95585.03;;;2.51;nan
70072;BME280;57434;42.794;23.302;2023-04-29T02:12:06;95611.84;;;2.54;nan
70072;BME280;57434;42.794;23.302;2023-04-29T02:13:08;95734.38;;;3.13;nan
70072;BME280;57434;42.794;23.302;2023-04-29T02:14:10;95719.59;;;2.78;nan
70072;BME280;57434;42.794;23.302;2023-04-29T02:15:12;95680.69;;;2.81;nan
70072;BME280;57434;42.794;23.302;2023-04-29T02:16:14;95700.78;;;2.98;nan
70072;BME280;57434;42.794;23.302;2023-04-29T02:17:16;95558.69;;;2.05;nan
70072;BME280;57434;42.794;23.302;2023-04-29T02:18:18;95564.97;;;1.93;nan
70072;BME280;57434;42.794;23.302;2023-04-29T02:19:20;95701.41;;;2.77;nan
70072;BME280;57434;42.794;23.302;2023-04-29T02:20:22;95695.47;;;2.62;nan
70072;BME280;57434;42.794;23.302;2023-04-29T02:21:24;95547.53;;;1.80;nan
70072;BME280;57434;42.794;23.302;2023-04-29T02:22:25;95559.78;;;1.95;nan
70072;BME280;57434;42.794;23.302;2023-04-29T02:23:27;95576.94;;;2.02;nan
70072;BME280;57434;42.794;23.302;2023-04-29T02:24:30;95558.66;;;1.92;nan
70072;BME280;57434;42.794;23.302;2023-04-29T02:25:32;95547.16;;;1.94;nan
70072;BME280;57434;42.794;23.302;2023-04-29T02:26:34;95518.56;;;1.71;nan
70072;BME280;57434;42.794;23.302;2023-04-29T02:27:36;95575.88;;;2.13;nan
70072;BME280;57434;42.794;23.302;2023-04-29T02:28:37;95538.91;;;1.78;nan
70072;BME280;57434;42.794;23.302;2023-04-29T02:29:39;95706.22;;;2.60;nan
70072;BME280;57434;42.794;23.302;2023-04-29T02:30:41;95714.16;;;2.45;nan
70072;BME280;57434;42.794;23.302;2023-04-29T02:31:43;95600.75;;;1.71;nan
70072;BME280;57434;42.794;23.302;2023-04-29T02:32:45;95542.69;;;1.55;nan
70072;BME280;57434;42.794;23.302;2023-04-29T02:33:46;95673.66;;;2.51;nan
70072;BME280;57434;42.794;23.302;2023-04-29T02:34:48;95560.50;;;1.83;nan
70072;BME280;57434;42.794;23.302;2023-04-29T02:35:50;95694.50;;;2.68;nan
70072;BME280;57434;42.794;23.302;2023-04-29T02:36:52;95697.31;;;2.81;nan
70072;BME280;57434;42.794;23.302;2023-04-29T02:37:54;95554.34;;;1.91;nan
70072;BME280;57434;42.794;23.302;2023-04-29T02:38:56;95650.63;;;2.54;nan
70072;BME280;57434;42.794;23.302;2023-04-29T02:39:58;95545.31;;;1.75;nan
70072;BME280;57434;42.794;23.302;2023-04-29T02:41:00;95715.72;;;2.46;nan
70072;BME280;57434;42.794;23.302;2023-04-29T02:42:01;95675.78;;;2.31;nan
70072;BME280;57434;42.794;23.302;2023-04-29T02:43:03;95696.97;;;2.37;nan
70072;BME280;57434;42.794;23.302;2023-04-29T02:44:05;95547.44;;;1.54;nan
70072;BME280;57434;42.794;23.302;2023-04-29T02:45:07;95682.69;;;2.39;nan
70072;BME280;57434;42.794;23.302;2023-04-29T02:46:10;95528.94;;;1.38;nan
70072;BME280;57434;42.794;23.302;2023-04-29T02:47:12;95658.53;;;2.27;nan
70072;BME280;57434;42.794;23.302;2023-04-29T02:48:13;95681.97;;;2.22;nan
70072;BME280;57434;42.794;23.302;2023-04-29T02:49:15;95671.16;;;2.28;nan
70072;BME280;57434;42.794;23.302;2023-04-29T02:50:17;95558.50;;;1.54;nan
70072;BME280;57434;42.794;23.302;2023-04-29T02:51:19;95571.53;;;1.70;nan
70072;BME280;57434;42.794;23.302;2023-04-29T02:52:21;95611.75;;;1.87;nan
70072;BME280;57434;42.794;23.302;2023-04-29T02:53:22;95702.03;;;2.26;nan
70072;BME280;57434;42.794;23.302;2023-04-29T02:54:24;95703.47;;;2.31;nan
70072;BME280;57434;42.794;23.302;2023-04-29T02:55:26;95575.00;;;1.58;nan
70072;BME280;57434;42.794;23.302;2023-04-29T02:56:28;95692.72;;;2.33;nan
70072;BME280;57434;42.794;23.302;2023-04-29T02:57:30;95574.56;;;1.59;nan
70072;BME280;57434;42.794;23.302;2023-04-29T02:58:31;95685.41;;;2.26;nan
70072;BME280;57434;42.794;23.302;2023-04-29T02:59:33;95587.88;;;1.64;nan
70072;BME280;57434;42.794;23.302;2023-04-29T03:00:35;95608.59;;;1.72;nan
70072;BME280;57434;42.794;23.302;2023-04-29T03:01:37;95569.75;;;1.47;nan
70072;BME280;57434;42.794;23.302;2023-04-29T03:02:39;95688.41;;;2.32;nan
70072;BME280;57434;42.794;23.302;2023-04-29T03:03:41;95702.25;;;2.32;nan
70072;BME280;57434;42.794;23.302;2023-04-29T03:04:43;95704.59;;;2.33;nan
70072;BME280;57434;42.794;23.302;2023-04-29T03:05:44;95692.88;;;2.42;nan
70072;BME280;57434;42.794;23.302;2023-04-29T03:06:46;95649.53;;;2.23;nan
70072;BME280;57434;42.794;23.302;2023-04-29T03:07:49;95694.06;;;1.99;nan
70072;BME280;57434;42.794;23.302;2023-04-29T03:08:50;95674.03;;;2.08;nan
70072;BME280;57434;42.794;23.302;2023-04-29T03:09:52;95562.00;;;1.42;nan
70072;BME280;57434;42.794;23.302;2023-04-29T03:10:54;95555.72;;;1.42;nan
70072;BME280;57434;42.794;23.302;2023-04-29T03:11:56;95696.16;;;2.24;nan
70072;BME280;57434;42.794;23.302;2023-04-29T03:12:58;95694.25;;;2.21;nan
70072;BME280;57434;42.794;23.302;2023-04-29T03:14:00;95665.78;;;1.92;nan
70072;BME280;57434;42.794;23.302;2023-04-29T03:15:02;95677.31;;;2.03;nan
70072;BME280;57434;42.794;23.302;2023-04-29T03:16:04;95698.22;;;1.91;nan
70072;BME280;57434;42.794;23.302;2023-04-29T03:17:06;95714.63;;;1.98;nan
70072;BME280;57434;42.794;23.302;2023-04-29T03:18:08;95552.09;;;0.96;nan
70072;BME280;57434;42.794;23.302;2023-04-29T03:19:09;95695.69;;;1.81;nan
70072;BME280;57434;42.794;23.302;2023-04-29T03:20:11;95727.81;;;2.07;nan
70072;BME280;57434;42.794;23.302;2023-04-29T03:21:13;95567.75;;;1.02;nan
70072;BME280;57434;42.794;23.302;2023-04-29T03:22:15;95626.59;;;1.48;nan
70072;BME280;57434;42.794;23.302;2023-04-29T03:23:17;95638.63;;;1.42;nan
70072;BME280;57434;42.794;23.302;2023-04-29T03:24:19;95672.13;;;1.60;nan
70072;BME280;57434;42.794;23.302;2023-04-29T03:25:20;95742.28;;;1.82;nan
70072;BME280;57434;42.794;23.302;2023-04-29T03:26:22;95718.25;;;1.79;nan
70072;BME280;57434;42.794;23.302;2023-04-29T03:27:24;95696.06;;;1.66;nan
70072;BME280;57434;42.794;23.302;2023-04-29T03:28:26;95607.63;;;1.18;nan
70072;BME280;57434;42.794;23.302;2023-04-29T03:29:28;95622.03;;;1.25;nan
70072;BME280;57434;42.794;23.302;2023-04-29T03:30:29;95594.34;;;1.13;nan
70072;BME280;57434;42.794;23.302;2023-04-29T03:31:31;95612.72;;;1.19;nan
70072;BME280;57434;42.794;23.302;2023-04-29T03:32:33;95625.66;;;1.22;nan
70072;BME280;57434;42.794;23.302;2023-04-29T03:33:35;95589.84;;;1.02;nan
70072;BME280;57434;42.794;23.302;2023-04-29T03:34:37;95577.75;;;0.96;nan
70072;BME280;57434;42.794;23.302;2023-04-29T03:35:38;95751.91;;;1.94;nan
70072;BME280;57434;42.794;23.302;2023-04-29T03:36:40;95746.53;;;1.87;nan
70072;BME280;57434;42.794;23.302;2023-04-29T03:37:42;95601.06;;;1.12;nan
70072;BME280;57434;42.794;23.302;2023-04-29T03:38:44;95721.56;;;1.90;nan
70072;BME280;57434;42.794;23.302;2023-04-29T03:39:45;95652.03;;;1.43;nan
70072;BME280;57434;42.794;23.302;2023-04-29T03:40:47;95724.47;;;1.99;nan
70072;BME280;57434;42.794;23.302;2023-04-29T03:41:49;95692.63;;;1.62;nan
70072;BME280;57434;42.794;23.302;2023-04-29T03:42:51;95639.91;;;1.53;nan
70072;BME280;57434;42.794;23.302;2023-04-29T03:43:53;95750.41;;;2.22;nan
70072;BME280;57434;42.794;23.302;2023-04-29T03:44:55;95765.56;;;2.30;nan
70072;BME280;57434;42.794;23.302;2023-04-29T03:45:56;95593.72;;;1.21;nan
70072;BME280;57434;42.794;23.302;2023-04-29T03:46:58;95694.06;;;1.99;nan
70072;BME280;57434;42.794;23.302;2023-04-29T03:48:00;95721.84;;;2.25;nan
70072;BME280;57434;42.794;23.302;2023-04-29T03:49:02;95709.75;;;2.19;nan
70072;BME280;57434;42.794;23.302;2023-04-29T03:50:05;95726.50;;;2.28;nan
70072;BME280;57434;42.794;23.302;2023-04-29T03:51:08;95627.13;;;1.59;nan
70072;BME280;57434;42.794;23.302;2023-04-29T03:52:09;95601.41;;;1.46;nan
70072;BME280;57434;42.794;23.302;2023-04-29T03:53:12;95667.47;;;1.73;nan
70072;BME280;57434;42.794;23.302;2023-04-29T03:54:14;95737.25;;;2.10;nan
70072;BME280;57434;42.794;23.302;2023-04-29T03:55:16;95739.06;;;2.16;nan
70072;BME280;57434;42.794;23.302;2023-04-29T03:56:18;95717.34;;;2.15;nan
70072;BME280;57434;42.794;23.302;2023-04-29T03:57:20;95763.41;;;2.37;nan
70072;BME280;57434;42.794;23.302;2023-04-29T03:58:22;95580.72;;;1.51;nan
70072;BME280;57434;42.794;23.302;2023-04-29T03:59:23;95740.78;;;2.55;nan
70072;BME280;57434;42.794;23.302;2023-04-29T04:00:25;95687.69;;;2.15;nan
70072;BME280;57434;42.794;23.302;2023-04-29T04:01:27;95599.47;;;1.59;nan
70072;BME280;57434;42.794;23.302;2023-04-29T04:02:29;95749.03;;;2.43;nan
70072;BME280;57434;42.794;23.302;2023-04-29T04:03:31;95755.94;;;2.51;nan
70072;BME280;57434;42.794;23.302;2023-04-29T04:04:33;95608.91;;;1.75;nan
70072;BME280;57434;42.794;23.302;2023-04-29T04:05:35;95629.06;;;1.75;nan
70072;BME280;57434;42.794;23.302;2023-04-29T04:06:36;95761.06;;;2.36;nan
70072;BME280;57434;42.794;23.302;2023-04-29T04:07:38;95627.03;;;1.63;nan
70072;BME280;57434;42.794;23.302;2023-04-29T04:08:40;95622.66;;;1.78;nan
70072;BME280;57434;42.794;23.302;2023-04-29T04:09:42;95639.16;;;1.98;nan
70072;BME280;57434;42.794;23.302;2023-04-29T04:10:44;95766.59;;;2.81;nan
70072;BME280;57434;42.794;23.302;2023-04-29T04:11:45;95633.53;;;1.85;nan
70072;BME280;57434;42.794;23.302;2023-04-29T04:12:47;95751.19;;;2.51;nan
70072;BME280;57434;42.794;23.302;2023-04-29T04:13:49;95615.22;;;1.75;nan
70072;BME280;57434;42.794;23.302;2023-04-29T04:14:51;95670.81;;;2.26;nan
70072;BME280;57434;42.794;23.302;2023-04-29T04:15:53;95658.53;;;2.27;nan
70072;BME280;57434;42.794;23.302;2023-04-29T04:16:54;95736.88;;;2.82;nan
70072;BME280;57434;42.794;23.302;2023-04-29T04:17:56;95605.28;;;2.06;nan
70072;BME280;57434;42.794;23.302;2023-04-29T04:18:58;95607.00;;;2.17;nan
70072;BME280;57434;42.794;23.302;2023-04-29T04:20:00;95744.56;;;3.03;nan
70072;BME280;57434;42.794;23.302;2023-04-29T04:21:09;95612.34;;;2.24;nan
70072;BME280;57434;42.794;23.302;2023-04-29T04:22:11;95598.59;;;2.20;nan
70072;BME280;57434;42.794;23.302;2023-04-29T04:23:13;95621.78;;;2.39;nan
70072;BME280;57434;42.794;23.302;2023-04-29T04:24:15;95594.38;;;2.16;nan
70072;BME280;57434;42.794;23.302;2023-04-29T04:25:17;95698.19;;;2.91;nan
70072;BME280;57434;42.794;23.302;2023-04-29T04:26:19;95719.72;;;3.12;nan
70072;BME280;57434;42.794;23.302;2023-04-29T04:27:21;95608.22;;;2.28;nan
70072;BME280;57434;42.794;23.302;2023-04-29T04:28:23;95722.41;;;3.16;nan
70072;BME280;57434;42.794;23.302;2023-04-29T04:29:25;95616.03;;;2.46;nan
70072;BME280;57434;42.794;23.302;2023-04-29T04:30:26;95667.38;;;2.89;nan
70072;BME280;57434;42.794;23.302;2023-04-29T04:31:28;95610.50;;;2.46;nan
70072;BME280;57434;42.794;23.302;2023-04-29T04:32:30;95600.50;;;2.36;nan
70072;BME280;57434;42.794;23.302;2023-04-29T04:33:32;95773.09;;;3.29;nan
70072;BME280;57434;42.794;23.302;2023-04-29T04:34:34;95673.69;;;2.77;nan
70072;BME280;57434;42.794;23.302;2023-04-29T04:35:36;95620.31;;;2.34;nan
70072;BME280;57434;42.794;23.302;2023-04-29T04:36:37;95644.31;;;2.66;nan
70072;BME280;57434;42.794;23.302;2023-04-29T04:37:39;95618.03;;;2.58;nan
70072;BME280;57434;42.794;23.302;2023-04-29T04:38:41;95761.13;;;3.45;nan
70072;BME280;57434;42.794;23.302;2023-04-29T04:39:43;95629.00;;;2.62;nan
70072;BME280;57434;42.794;23.302;2023-04-29T04:40:45;95751.38;;;3.40;nan
70072;BME280;57434;42.794;23.302;2023-04-29T04:41:46;95641.19;;;2.64;nan
70072;BME280;57434;42.794;23.302;2023-04-29T04:42:48;95652.22;;;2.81;nan
70072;BME280;57434;42.794;23.302;2023-04-29T04:43:50;95758.91;;;3.39;nan
70072;BME280;57434;42.794;23.302;2023-04-29T04:44:52;95747.72;;;3.43;nan
70072;BME280;57434;42.794;23.302;2023-04-29T04:45:54;95630.94;;;2.78;nan
70072;BME280;57434;42.794;23.302;2023-04-29T04:46:56;95763.69;;;3.77;nan
70072;BME280;57434;42.794;23.302;2023-04-29T04:47:57;95624.06;;;2.82;nan
70072;BME280;57434;42.794;23.302;2023-04-29T04:48:59;95636.13;;;2.88;nan
70072;BME280;57434;42.794;23.302;2023-04-29T04:50:01;95609.22;;;2.76;nan
70072;BME280;57434;42.794;23.302;2023-04-29T04:51:09;95625.06;;;3.01;nan
70072;BME280;57434;42.794;23.302;2023-04-29T04:52:11;95711.97;;;3.70;nan
70072;BME280;57434;42.794;23.302;2023-04-29T04:53:13;95602.56;;;2.99;nan
70072;BME280;57434;42.794;23.302;2023-04-29T04:54:15;95619.84;;;3.16;nan
70072;BME280;57434;42.794;23.302;2023-04-29T04:55:17;95726.78;;;4.02;nan
70072;BME280;57434;42.794;23.302;2023-04-29T04:56:19;95743.16;;;4.34;nan
70072;BME280;57434;42.794;23.302;2023-04-29T04:57:21;95605.38;;;3.46;nan
70072;BME280;57434;42.794;23.302;2023-04-29T04:58:22;95664.13;;;3.79;nan
70072;BME280;57434;42.794;23.302;2023-04-29T04:59:24;95636.16;;;3.73;nan
70072;BME280;57434;42.794;23.302;2023-04-29T05:00:26;95628.72;;;3.83;nan
70072;BME280;57434;42.794;23.302;2023-04-29T05:01:29;95625.94;;;3.83;nan
70072;BME280;57434;42.794;23.302;2023-04-29T05:02:31;95742.84;;;4.54;nan
70072;BME280;57434;42.794;23.302;2023-04-29T05:03:33;95595.38;;;3.49;nan
70072;BME280;57434;42.794;23.302;2023-04-29T05:04:35;95700.44;;;4.19;nan
70072;BME280;57434;42.794;23.302;2023-04-29T05:05:36;95596.81;;;3.53;nan
70072;BME280;57434;42.794;23.302;2023-04-29T05:06:38;95719.25;;;4.37;nan
70072;BME280;57434;42.794;23.302;2023-04-29T05:07:40;95726.91;;;4.46;nan
70072;BME280;57434;42.794;23.302;2023-04-29T05:08:42;95614.06;;;3.83;nan
70072;BME280;57434;42.794;23.302;2023-04-29T05:09:43;95742.59;;;4.61;nan
70072;BME280;57434;42.794;23.302;2023-04-29T05:10:45;95607.19;;;3.74;nan
70072;BME280;57434;42.794;23.302;2023-04-29T05:11:47;95589.75;;;3.39;nan
70072;BME280;57434;42.794;23.302;2023-04-29T05:12:49;95630.94;;;3.28;nan
70072;BME280;57434;42.794;23.302;2023-04-29T05:13:51;95717.50;;;3.83;nan
70072;BME280;57434;42.794;23.302;2023-04-29T05:14:52;95615.84;;;3.29;nan
70072;BME280;57434;42.794;23.302;2023-04-29T05:15:54;95735.75;;;4.19;nan
70072;BME280;57434;42.794;23.302;2023-04-29T05:16:59;95586.28;;;3.61;nan
70072;BME280;57434;42.794;23.302;2023-04-29T05:18:01;95736.78;;;4.47;nan
70072;BME280;57434;42.794;23.302;2023-04-29T05:19:03;95710.59;;;4.57;nan
70072;BME280;57434;42.794;23.302;2023-04-29T05:20:05;95717.72;;;4.79;nan
70072;BME280;57434;42.794;23.302;2023-04-29T05:21:07;95695.47;;;4.79;nan
70072;BME280;57434;42.794;23.302;2023-04-29T05:22:09;95602.28;;;4.35;nan
70072;BME280;57434;42.794;23.302;2023-04-29T05:23:11;95602.28;;;4.35;nan
70072;BME280;57434;42.794;23.302;2023-04-29T05:24:13;95633.13;;;4.59;nan
70072;BME280;57434;42.794;23.302;2023-04-29T05:25:14;95756.53;;;5.27;nan
70072;BME280;57434;42.794;23.302;2023-04-29T05:26:16;95712.94;;;5.24;nan
70072;BME280;57434;42.794;23.302;2023-04-29T05:27:18;95737.84;;;5.36;nan
70072;BME280;57434;42.794;23.302;2023-04-29T05:28:20;95572.28;;;4.52;nan
70072;BME280;57434;42.794;23.302;2023-04-29T05:29:22;95591.72;;;4.73;nan
70072;BME280;57434;42.794;23.302;2023-04-29T05:30:24;95575.44;;;4.63;nan
70072;BME280;57434;42.794;23.302;2023-04-29T05:31:25;95565.03;;;4.54;nan
70072;BME280;57434;42.794;23.302;2023-04-29T05:32:28;95690.44;;;5.40;nan
70072;BME280;57434;42.794;23.302;2023-04-29T05:33:29;95578.06;;;4.66;nan
70072;BME280;57434;42.794;23.302;2023-04-29T05:34:31;95721.47;;;5.69;nan
70072;BME280;57434;42.794;23.302;2023-04-29T05:35:33;95627.44;;;5.15;nan
70072;BME280;57434;42.794;23.302;2023-04-29T05:36:35;95602.34;;;5.06;nan
70072;BME280;57434;42.794;23.302;2023-04-29T05:37:37;95610.94;;;5.21;nan
70072;BME280;57434;42.794;23.302;2023-04-29T05:38:38;95702.00;;;5.88;nan
70072;BME280;57434;42.794;23.302;2023-04-29T05:39:40;95728.84;;;6.03;nan
70072;BME280;57434;42.794;23.302;2023-04-29T05:40:42;95583.75;;;5.34;nan
70072;BME280;57434;42.794;23.302;2023-04-29T05:41:44;95597.41;;;5.59;nan
70072;BME280;57434;42.794;23.302;2023-04-29T05:42:46;95614.34;;;5.83;nan
70072;BME280;57434;42.794;23.302;2023-04-29T05:43:47;95715.72;;;6.50;nan
70072;BME280;57434;42.794;23.302;2023-04-29T05:44:49;95716.38;;;6.63;nan
70072;BME280;57434;42.794;23.302;2023-04-29T05:45:51;95724.69;;;6.44;nan
70072;BME280;57434;42.794;23.302;2023-04-29T05:46:53;95731.69;;;6.58;nan
70072;BME280;57434;42.794;23.302;2023-04-29T05:47:55;95712.63;;;6.47;nan
70072;BME280;57434;42.794;23.302;2023-04-29T05:48:56;95572.69;;;5.52;nan
70072;BME280;57434;42.794;23.302;2023-04-29T05:49:58;95724.25;;;6.55;nan